createdAt,value
2017-12-30T00:00:26.411Z,14.80
2017-12-30T00:02:53.998Z,15.97
2017-12-30T00:05:22.332Z,10.47
2017-12-30T00:07:49.917Z,16.17
2017-12-30T00:10:17.598Z,13.83
2017-12-30T00:12:45.925Z,16.00
2017-12-30T00:15:13.520Z,19.03
2017-12-30T00:17:41.077Z,14.70
2017-12-30T00:20:08.701Z,16.80
2017-12-30T00:22:37.517Z,18.43
2017-12-30T00:25:05.069Z,17.37
2017-12-30T00:27:32.655Z,18.50
2017-12-30T00:30:00.217Z,13.23
2017-12-30T00:32:27.805Z,11.30
2017-12-30T00:34:55.371Z,14.73
2017-12-30T00:37:22.968Z,11.20
2017-12-30T00:39:50.530Z,9.13
2017-12-30T00:42:18.106Z,7.53
2017-12-30T00:44:46.193Z,11.73
2017-12-30T00:47:13.780Z,11.47
2017-12-30T00:49:41.337Z,8.73
2017-12-30T00:52:08.920Z,16.30
2017-12-30T00:54:36.504Z,6.23
2017-12-30T00:57:04.125Z,7.73
2017-12-30T00:59:31.692Z,11.40
2017-12-30T01:01:59.295Z,5.97
2017-12-30T01:04:26.936Z,14.20
2017-12-30T01:06:54.480Z,11.60
2017-12-30T01:09:22.077Z,12.57
2017-12-30T01:11:49.706Z,6.67
2017-12-30T01:14:17.273Z,12.63
2017-12-30T01:16:44.857Z,9.83
2017-12-30T01:19:12.398Z,16.43
2017-12-30T01:21:39.969Z,9.20
2017-12-30T01:24:07.594Z,10.43
2017-12-30T01:26:35.946Z,4.70
2017-12-30T01:29:03.532Z,7.73
2017-12-30T01:31:31.865Z,12.70
2017-12-30T01:34:00.048Z,13.57
2017-12-30T01:36:27.620Z,9.60
2017-12-30T01:38:55.182Z,11.53
2017-12-30T01:41:22.761Z,10.53
2017-12-30T01:43:51.120Z,10.57
2017-12-30T01:46:18.693Z,5.27
2017-12-30T01:48:58.247Z,10.83
2017-12-30T01:51:26.602Z,7.70
2017-12-30T01:53:54.189Z,12.33
2017-12-30T01:56:22.796Z,11.10
2017-12-30T01:58:50.393Z,14.10
2017-12-30T02:01:17.952Z,17.63
2017-12-30T02:03:45.632Z,5.00
2017-12-30T02:06:13.509Z,10.93
2017-12-30T02:08:41.836Z,14.53
2017-12-30T02:11:09.409Z,11.90
2017-12-30T02:13:37.066Z,13.10
2017-12-30T02:16:04.626Z,17.77
2017-12-30T02:18:32.253Z,11.77
2017-12-30T02:20:59.821Z,12.90
2017-12-30T02:23:27.440Z,15.77
2017-12-30T02:25:54.983Z,6.20
2017-12-30T02:28:22.570Z,5.83
2017-12-30T02:30:50.188Z,20.93
2017-12-30T02:33:17.785Z,12.90
2017-12-30T02:35:45.356Z,11.47
2017-12-30T02:38:12.944Z,12.33
2017-12-30T02:40:40.538Z,13.50
2017-12-30T02:43:08.860Z,9.63
2017-12-30T02:45:36.427Z,14.53
2017-12-30T02:48:04.749Z,10.20
2017-12-30T02:50:32.812Z,14.07
2017-12-30T02:53:00.376Z,10.67
2017-12-30T02:55:27.958Z,13.47
2017-12-30T02:57:55.516Z,13.03
2017-12-30T03:00:23.089Z,9.83
2017-12-30T03:02:50.690Z,8.53
2017-12-30T03:05:19.073Z,19.30
2017-12-30T03:07:47.441Z,18.03
2017-12-30T03:10:15.789Z,17.20
2017-12-30T03:12:43.354Z,12.50
2017-12-30T03:15:10.933Z,26.90
2017-12-30T03:17:38.528Z,12.40
2017-12-30T03:20:06.100Z,16.73
2017-12-30T03:22:33.693Z,18.43
2017-12-30T03:25:01.338Z,23.60
2017-12-30T03:27:28.922Z,13.17
2017-12-30T03:29:56.484Z,7.87
2017-12-30T03:32:24.148Z,9.53
2017-12-30T03:34:51.713Z,16.23
2017-12-30T03:37:19.282Z,9.03
2017-12-30T03:39:46.891Z,17.03
2017-12-30T03:42:14.438Z,9.93
2017-12-30T03:44:41.996Z,11.50
2017-12-30T03:47:09.568Z,23.80
2017-12-30T03:49:37.163Z,12.73
2017-12-30T03:52:04.718Z,12.97
2017-12-30T03:54:32.306Z,9.47
2017-12-30T03:56:59.894Z,12.57
2017-12-30T03:59:27.441Z,14.47
2017-12-30T04:01:55.797Z,13.50
2017-12-30T04:04:23.354Z,8.07
2017-12-30T04:06:50.962Z,11.13
2017-12-30T04:09:18.544Z,14.67
2017-12-30T04:11:46.164Z,8.40
2017-12-30T04:14:14.491Z,14.27
2017-12-30T04:16:42.833Z,12.53
2017-12-30T04:19:11.195Z,13.97
2017-12-30T04:21:39.013Z,14.77
2017-12-30T04:24:06.560Z,17.37
2017-12-30T04:26:34.142Z,13.43
2017-12-30T04:29:01.734Z,7.93
2017-12-30T04:31:29.313Z,13.40
2017-12-30T04:33:57.625Z,9.07
2017-12-30T04:36:25.204Z,9.57
2017-12-30T04:38:52.753Z,8.93
2017-12-30T04:41:20.321Z,10.17
2017-12-30T04:43:47.866Z,18.37
2017-12-30T04:46:15.453Z,7.10
2017-12-30T04:48:43.076Z,8.50
2017-12-30T04:51:10.656Z,11.43
2017-12-30T04:53:38.217Z,12.10
2017-12-30T04:56:05.800Z,11.30
2017-12-30T04:58:33.357Z,9.77
2017-12-30T05:01:00.908Z,29.47
2017-12-30T05:03:28.514Z,11.63
2017-12-30T05:05:56.908Z,9.33
2017-12-30T05:08:25.457Z,6.60
2017-12-30T05:10:53.593Z,11.07
2017-12-30T05:13:21.429Z,9.07
2017-12-30T05:15:48.972Z,5.40
2017-12-30T05:18:16.611Z,11.60
2017-12-30T05:20:44.342Z,10.50
2017-12-30T05:23:11.913Z,9.73
2017-12-30T05:25:39.547Z,17.20
2017-12-30T05:28:07.865Z,12.23
2017-12-30T05:30:35.428Z,6.93
2017-12-30T05:33:03.280Z,6.93
2017-12-30T05:35:30.845Z,12.50
2017-12-30T05:37:58.425Z,7.90
2017-12-30T05:40:25.962Z,8.83
2017-12-30T05:42:53.544Z,7.37
2017-12-30T05:45:21.112Z,10.03
2017-12-30T05:47:48.685Z,7.70
2017-12-30T05:50:16.247Z,14.50
2017-12-30T05:52:43.806Z,10.87
2017-12-30T05:55:11.361Z,16.70
2017-12-30T05:57:38.960Z,15.63
2017-12-30T06:00:06.524Z,21.33
2017-12-30T06:02:34.101Z,12.37
2017-12-30T06:05:01.671Z,8.83
2017-12-30T06:07:29.261Z,11.57
2017-12-30T06:09:56.825Z,14.30
2017-12-30T06:12:24.385Z,7.67
2017-12-30T06:14:52.036Z,8.03
2017-12-30T06:17:19.591Z,9.13
2017-12-30T06:19:47.161Z,11.43
2017-12-30T06:22:14.721Z,17.97
2017-12-30T06:24:42.297Z,11.37
2017-12-30T06:27:09.901Z,11.07
2017-12-30T06:29:37.461Z,9.40
2017-12-30T06:32:05.029Z,21.97
2017-12-30T06:34:33.315Z,19.13
2017-12-30T06:37:00.874Z,9.73
2017-12-30T06:39:28.552Z,11.43
2017-12-30T06:41:56.125Z,9.70
2017-12-30T06:44:23.773Z,10.93
2017-12-30T06:46:51.379Z,13.60
2017-12-30T06:49:18.928Z,11.80
2017-12-30T06:51:46.517Z,8.10
2017-12-30T06:54:14.201Z,9.70
2017-12-30T06:56:41.760Z,9.80
2017-12-30T06:59:09.324Z,13.40
2017-12-30T07:01:36.895Z,6.30
2017-12-30T07:04:04.456Z,8.57
2017-12-30T07:06:32.116Z,4.40
2017-12-30T07:08:59.665Z,8.43
2017-12-30T07:11:27.241Z,7.60
2017-12-30T07:23:40.589Z,7.73
2017-12-30T07:26:08.908Z,8.87
2017-12-30T07:28:36.512Z,8.90
2017-12-30T07:31:04.197Z,3.40
2017-12-30T07:33:32.606Z,3.00
2017-12-30T07:36:00.169Z,8.80
2017-12-30T07:38:28.505Z,7.87
2017-12-30T07:40:56.845Z,6.30
2017-12-30T07:43:24.495Z,4.70
2017-12-30T07:45:52.059Z,4.20
2017-12-30T07:48:19.620Z,3.30
2017-12-30T07:50:47.220Z,5.40
2017-12-30T07:53:14.792Z,1.50
2017-12-30T07:55:43.205Z,5.37
2017-12-30T07:58:10.736Z,2.00
2017-12-30T08:00:39.076Z,1.73
2017-12-30T08:03:06.644Z,2.20
2017-12-30T08:05:34.229Z,4.73
2017-12-30T08:08:01.838Z,2.90
2017-12-30T08:10:29.460Z,4.30
2017-12-30T08:12:57.791Z,1.80
2017-12-30T08:15:26.025Z,2.30
2017-12-30T08:17:54.940Z,2.67
2017-12-30T08:20:22.597Z,1.27
2017-12-30T08:22:50.181Z,3.90
2017-12-30T08:25:18.517Z,1.43
2017-12-30T08:27:46.865Z,2.10
2017-12-30T08:30:14.438Z,4.57
2017-12-30T08:32:42.046Z,0.90
2017-12-30T08:35:09.665Z,1.77
2017-12-30T08:37:37.712Z,0.90
2017-12-30T08:40:05.270Z,1.80
2017-12-30T08:42:32.851Z,3.13
2017-12-30T08:45:00.422Z,2.20
2017-12-30T08:47:28.117Z,1.50
2017-12-30T08:49:55.675Z,0.93
2017-12-30T08:52:23.221Z,1.83
2017-12-30T08:54:51.568Z,1.23
2017-12-30T08:57:19.113Z,0.90
2017-12-30T08:59:47.470Z,1.37
2017-12-30T09:02:15.013Z,1.67
2017-12-30T09:04:42.620Z,0.90
2017-12-30T09:07:10.656Z,1.10
2017-12-30T09:09:38.376Z,1.20
2017-12-30T09:12:05.921Z,1.33
2017-12-30T09:14:33.529Z,1.23
2017-12-30T09:17:01.120Z,3.50
2017-12-30T09:19:28.713Z,1.20
2017-12-30T09:21:56.279Z,2.10
2017-12-30T09:24:23.879Z,1.73
2017-12-30T09:26:51.709Z,1.60
2017-12-30T09:29:19.250Z,1.17
2017-12-30T09:31:46.846Z,0.90
2017-12-30T09:34:15.161Z,1.80
2017-12-30T09:36:42.755Z,2.60
2017-12-30T09:39:11.149Z,1.00
2017-12-30T09:41:38.736Z,1.10
2017-12-30T09:44:06.333Z,1.30
2017-12-30T09:46:33.932Z,1.27
2017-12-30T09:49:01.485Z,2.60
2017-12-30T09:51:29.997Z,2.63
2017-12-30T09:53:57.586Z,1.80
2017-12-30T09:56:25.173Z,0.93
2017-12-30T09:58:52.723Z,1.23
2017-12-30T10:01:20.313Z,1.10
2017-12-30T10:03:48.340Z,1.30
2017-12-30T10:06:16.497Z,1.13
2017-12-30T10:08:44.062Z,0.90
2017-12-30T10:11:11.639Z,1.10
2017-12-30T10:13:39.200Z,1.00
2017-12-30T10:16:06.767Z,0.93
2017-12-30T10:18:34.345Z,0.90
2017-12-30T10:21:01.917Z,1.00
2017-12-30T10:23:29.833Z,1.13
2017-12-30T10:25:57.379Z,1.00
2017-12-30T10:28:25.699Z,1.53
2017-12-30T10:30:54.665Z,0.93
2017-12-30T10:33:22.215Z,1.10
2017-12-30T10:35:50.533Z,1.03
2017-12-30T10:38:23.552Z,1.13
2017-12-30T10:40:51.168Z,2.03
2017-12-30T10:43:18.753Z,1.30
2017-12-30T10:45:46.335Z,1.10
2017-12-30T10:48:13.937Z,0.80
2017-12-30T10:50:41.617Z,0.80
2017-12-30T10:53:25.541Z,2.17
2017-12-30T10:55:53.450Z,1.13
2017-12-30T10:58:21.041Z,0.70
2017-12-30T11:00:55.041Z,1.10
2017-12-30T11:03:22.615Z,0.80
2017-12-30T11:05:50.196Z,1.13
2017-12-30T11:08:18.540Z,1.33
2017-12-30T11:10:46.255Z,1.27
2017-12-30T11:13:13.824Z,1.00
2017-12-30T11:18:15.744Z,1.30
2017-12-30T11:20:44.832Z,1.57
2017-12-30T11:23:16.155Z,2.00
2017-12-30T11:25:43.749Z,2.90
2017-12-30T11:28:12.285Z,3.10
2017-12-30T11:30:39.838Z,4.13
2017-12-30T11:33:07.657Z,5.07
2017-12-30T11:35:35.229Z,2.17
2017-12-30T11:38:02.809Z,2.07
2017-12-30T11:40:31.181Z,4.10
2017-12-30T11:42:59.565Z,7.27
2017-12-30T11:45:27.924Z,5.80
2017-12-30T11:47:55.517Z,5.53
2017-12-30T11:50:23.865Z,16.00
2017-12-30T11:52:51.458Z,11.03
2017-12-30T11:55:19.124Z,14.30
2017-12-30T11:57:47.520Z,9.13
2017-12-30T12:00:15.114Z,8.47
2017-12-30T12:02:42.737Z,12.90
2017-12-30T12:05:10.344Z,15.50
2017-12-30T12:07:38.030Z,11.77
2017-12-30T12:10:06.415Z,16.23
2017-12-30T12:12:34.786Z,20.23
2017-12-30T12:15:02.350Z,14.47
2017-12-30T12:17:29.961Z,26.63
2017-12-30T12:19:57.549Z,23.23
2017-12-30T12:22:26.064Z,21.53
2017-12-30T12:24:53.637Z,28.00
2017-12-30T12:27:21.211Z,17.17
2017-12-30T12:29:48.812Z,25.80
2017-12-30T12:32:16.402Z,17.40
2017-12-30T12:34:44.841Z,17.17
2017-12-30T12:37:12.448Z,21.30
2017-12-30T12:39:40.041Z,27.17
2017-12-30T12:42:07.772Z,20.23
2017-12-30T12:44:35.348Z,22.20
2017-12-30T12:47:03.741Z,32.53
2017-12-30T12:49:31.625Z,27.60
2017-12-30T12:52:00.921Z,29.30
2017-12-30T12:54:28.582Z,22.47
2017-12-30T12:56:56.152Z,16.77
2017-12-30T12:59:23.749Z,16.73
2017-12-30T13:01:51.380Z,27.00
2017-12-30T13:04:19.889Z,18.47
2017-12-30T13:06:47.472Z,27.33
2017-12-30T13:09:15.797Z,41.23
2017-12-30T13:11:43.393Z,30.93
2017-12-30T13:14:10.987Z,29.50
2017-12-30T13:16:39.394Z,31.47
2017-12-30T13:19:06.973Z,30.27
2017-12-30T13:21:34.569Z,31.87
2017-12-30T13:24:02.131Z,29.43
2017-12-30T13:26:33.256Z,28.63
2017-12-30T13:28:57.358Z,33.77
2017-12-30T13:31:25.704Z,27.03
2017-12-30T13:33:53.282Z,33.67
2017-12-30T13:36:21.623Z,24.57
2017-12-30T13:38:49.216Z,28.47
2017-12-30T13:41:16.782Z,28.60
2017-12-30T13:43:44.357Z,15.70
2017-12-30T13:46:12.693Z,37.83
2017-12-30T13:48:40.272Z,30.20
2017-12-30T13:51:07.851Z,32.10
2017-12-30T13:53:35.461Z,35.90
2017-12-30T13:56:03.817Z,40.63
2017-12-30T13:58:32.173Z,29.83
2017-12-30T14:00:59.740Z,33.70
2017-12-30T14:03:28.138Z,32.87
2017-12-30T14:05:55.778Z,35.53
2017-12-30T14:08:24.125Z,35.00
2017-12-30T14:10:51.966Z,40.03
2017-12-30T14:13:19.560Z,42.27
2017-12-30T14:15:47.180Z,56.47
2017-12-30T14:18:14.728Z,39.97
2017-12-30T14:20:42.317Z,49.50
2017-12-30T14:23:09.884Z,37.33
2017-12-30T14:25:38.243Z,40.53
2017-12-30T14:28:06.569Z,28.53
2017-12-30T14:30:34.191Z,52.03
2017-12-30T14:33:01.772Z,41.53
2017-12-30T14:35:29.382Z,39.63
2017-12-30T14:37:57.733Z,37.13
2017-12-30T14:40:25.312Z,33.93
2017-12-30T14:42:53.710Z,34.03
2017-12-30T14:45:22.078Z,41.78
2017-12-30T14:47:49.873Z,44.87
2017-12-30T14:50:18.214Z,44.53
2017-12-30T14:52:45.789Z,24.80
2017-12-30T14:55:13.823Z,32.87
2017-12-30T14:57:41.416Z,35.97
2017-12-30T15:00:09.017Z,41.00
2017-12-30T15:02:36.619Z,38.17
2017-12-30T15:05:04.182Z,40.10
2017-12-30T15:07:31.833Z,27.17
2017-12-30T15:09:59.439Z,42.87
2017-12-30T15:12:27.028Z,21.27
2017-12-30T15:14:54.594Z,34.10
2017-12-30T15:17:22.189Z,34.10
2017-12-30T15:19:49.769Z,44.83
2017-12-30T15:22:18.268Z,37.07
2017-12-30T15:24:46.625Z,35.30
2017-12-30T15:27:14.945Z,27.83
2017-12-30T15:29:42.629Z,39.23
2017-12-30T15:32:10.222Z,49.87
2017-12-30T15:34:37.820Z,49.47
2017-12-30T15:37:05.374Z,36.27
2017-12-30T15:39:32.992Z,35.97
2017-12-30T15:42:00.553Z,29.50
2017-12-30T15:44:28.133Z,36.10
2017-12-30T15:46:55.729Z,39.93
2017-12-30T15:49:23.301Z,40.07
2017-12-30T15:51:51.030Z,32.17
2017-12-30T15:54:19.388Z,41.53
2017-12-30T15:56:46.964Z,43.23
2017-12-30T15:59:16.061Z,33.57
2017-12-30T16:01:44.397Z,42.40
2017-12-30T16:04:11.973Z,42.63
2017-12-30T16:06:39.574Z,38.87
2017-12-30T16:09:07.142Z,34.40
2017-12-30T16:11:35.501Z,29.33
2017-12-30T16:14:03.857Z,37.47
2017-12-30T16:16:31.458Z,39.73
2017-12-30T16:19:12.473Z,32.00
2017-12-30T16:21:40.023Z,33.53
2017-12-30T16:24:07.625Z,36.73
2017-12-30T16:26:35.194Z,32.40
2017-12-30T16:29:02.803Z,30.70
2017-12-30T16:31:32.981Z,28.23
2017-12-30T16:34:16.866Z,31.87
2017-12-30T16:36:44.429Z,32.23
2017-12-30T16:39:12.038Z,19.83
2017-12-30T16:41:39.609Z,38.77
2017-12-30T16:44:08.020Z,41.40
2017-12-30T16:46:35.608Z,33.63
2017-12-30T16:49:06.791Z,29.53
2017-12-30T16:51:34.432Z,31.40
2017-12-30T16:54:02.001Z,32.50
2017-12-30T16:56:29.583Z,39.67
2017-12-30T16:58:57.913Z,44.83
2017-12-30T17:01:25.509Z,25.17
2017-12-30T17:03:53.100Z,20.87
2017-12-30T17:06:20.856Z,29.17
2017-12-30T17:08:49.172Z,37.97
2017-12-30T17:11:16.752Z,32.47
2017-12-30T17:13:44.329Z,35.93
2017-12-30T17:16:11.923Z,28.17
2017-12-30T17:18:39.527Z,31.50
2017-12-30T17:21:07.113Z,16.73
2017-12-30T17:23:34.961Z,29.17
2017-12-30T17:26:02.528Z,33.90
2017-12-30T17:28:30.122Z,29.90
2017-12-30T17:30:58.454Z,33.10
2017-12-30T17:33:26.100Z,33.93
2017-12-30T17:35:53.682Z,29.57
2017-12-30T17:38:32.093Z,29.13
2017-12-30T17:40:59.676Z,25.10
2017-12-30T17:43:27.366Z,30.33
2017-12-30T17:45:55.726Z,29.27
2017-12-30T17:48:23.312Z,39.43
2017-12-30T17:50:51.672Z,35.40
2017-12-30T17:53:19.248Z,41.27
2017-12-30T17:55:47.589Z,30.70
2017-12-30T17:58:15.158Z,31.13
2017-12-30T18:00:42.760Z,31.00
2017-12-30T18:03:10.360Z,30.73
2017-12-30T18:05:37.983Z,38.33
2017-12-30T18:08:06.345Z,43.67
2017-12-30T18:10:34.772Z,51.93
2017-12-30T18:13:02.359Z,30.33
2017-12-30T18:15:29.956Z,33.50
2017-12-30T18:17:58.335Z,35.53
2017-12-30T18:20:26.721Z,29.73
2017-12-30T18:22:55.049Z,32.43
2017-12-30T18:25:24.243Z,32.93
2017-12-30T18:27:58.166Z,31.53
2017-12-30T18:30:25.709Z,37.33
2017-12-30T18:32:53.299Z,28.77
2017-12-30T18:35:20.921Z,38.97
2017-12-30T18:37:49.194Z,30.20
2017-12-30T18:40:16.806Z,26.77
2017-12-30T18:42:44.381Z,30.03
2017-12-30T18:45:12.737Z,54.50
2017-12-30T18:47:40.350Z,38.03
2017-12-30T18:50:12.310Z,33.43
2017-12-30T18:52:39.890Z,21.63
2017-12-30T18:55:07.465Z,20.27
2017-12-30T18:57:35.067Z,33.80
2017-12-30T19:00:03.402Z,25.57
2017-12-30T19:02:31.024Z,24.53
2017-12-30T19:04:59.392Z,29.90
2017-12-30T19:07:28.476Z,26.10
2017-12-30T19:09:57.171Z,33.43
2017-12-30T19:12:25.513Z,30.23
2017-12-30T19:14:53.113Z,23.70
2017-12-30T19:17:21.472Z,20.90
2017-12-30T19:19:49.042Z,38.23
2017-12-30T19:22:16.634Z,32.70
2017-12-30T19:24:44.222Z,31.80
2017-12-30T19:27:11.830Z,27.03
2017-12-30T19:29:39.396Z,26.80
2017-12-30T19:32:07.858Z,31.93
2017-12-30T19:34:36.316Z,29.93
2017-12-30T19:37:03.919Z,13.70
2017-12-30T19:39:32.256Z,25.07
2017-12-30T19:42:00.033Z,34.10
2017-12-30T19:44:27.619Z,40.97
2017-12-30T19:46:58.762Z,21.47
2017-12-30T19:49:27.279Z,24.00
2017-12-30T19:51:54.871Z,22.03
2017-12-30T19:54:23.193Z,18.90
2017-12-30T19:56:51.608Z,24.30
2017-12-30T19:59:19.351Z,23.97
2017-12-30T20:01:47.844Z,20.87
2017-12-30T20:04:15.442Z,28.43
2017-12-30T20:06:43.538Z,30.43
2017-12-30T20:09:11.225Z,26.33
2017-12-30T20:11:39.570Z,40.30
2017-12-30T20:14:07.287Z,38.60
2017-12-30T20:16:35.990Z,30.93
2017-12-30T20:19:04.302Z,26.00
2017-12-30T20:21:31.880Z,32.83
2017-12-30T20:23:59.481Z,29.20
2017-12-30T20:26:27.064Z,33.27
2017-12-30T20:28:54.640Z,36.17
2017-12-30T20:31:22.223Z,20.70
2017-12-30T20:33:50.769Z,23.23
2017-12-30T20:36:28.162Z,29.00
2017-12-30T20:38:56.822Z,21.93
2017-12-30T20:41:25.065Z,30.43
2017-12-30T20:46:27.901Z,26.53
2017-12-30T20:48:56.398Z,35.93
2017-12-30T20:51:24.033Z,27.77
2017-12-30T20:53:51.612Z,24.67
2017-12-30T20:56:19.642Z,23.40
2017-12-30T20:58:49.793Z,24.00
2017-12-30T21:01:26.277Z,45.00
2017-12-30T21:03:53.989Z,37.40
2017-12-30T21:06:24.241Z,22.83
2017-12-30T21:09:02.759Z,36.87
2017-12-30T21:11:31.779Z,27.73
2017-12-30T21:13:59.384Z,22.47
2017-12-30T21:16:27.622Z,31.93
2017-12-30T21:18:55.909Z,38.60
2017-12-30T21:21:23.615Z,46.50
2017-12-30T21:23:51.973Z,25.20
2017-12-30T21:26:19.578Z,35.13
2017-12-30T21:28:47.153Z,31.67
2017-12-30T21:31:16.055Z,33.23
2017-12-30T21:33:44.097Z,27.67
2017-12-30T21:36:11.749Z,28.40
2017-12-30T21:38:40.133Z,36.33
2017-12-30T21:41:08.921Z,36.37
2017-12-30T21:43:37.401Z,25.60
2017-12-30T21:46:05.784Z,30.80
2017-12-30T21:48:34.125Z,17.13
2017-12-30T21:51:01.808Z,30.73
2017-12-30T21:53:29.440Z,28.17
2017-12-30T21:55:57.039Z,32.47
2017-12-30T21:58:24.751Z,32.73
2017-12-30T22:00:52.490Z,31.27
2017-12-30T22:03:20.128Z,33.83
2017-12-30T22:05:48.517Z,30.37
2017-12-30T22:08:16.861Z,30.83
2017-12-30T22:10:44.460Z,23.43
2017-12-30T22:13:12.817Z,30.83
2017-12-30T22:15:41.349Z,41.40
2017-12-30T22:18:09.046Z,42.73
2017-12-30T22:20:36.656Z,34.83
2017-12-30T22:23:05.833Z,29.70
2017-12-30T22:25:33.654Z,30.73
2017-12-30T22:28:01.312Z,21.90
2017-12-30T22:30:28.881Z,31.13
2017-12-30T22:32:56.493Z,32.00
2017-12-30T22:35:24.835Z,30.23
2017-12-30T22:37:53.193Z,24.17
2017-12-30T22:40:20.766Z,46.97
2017-12-30T22:42:48.435Z,32.60
2017-12-30T22:45:16.019Z,43.77
2017-12-30T22:47:43.608Z,39.50
2017-12-30T22:50:11.211Z,30.83
2017-12-30T22:52:38.795Z,32.53
2017-12-30T22:55:06.407Z,27.80
2017-12-30T22:57:34.090Z,41.50
2017-12-30T23:00:01.770Z,53.57
2017-12-30T23:02:29.427Z,31.70
2017-12-30T23:04:57.010Z,44.67
2017-12-30T23:07:24.607Z,21.70
2017-12-30T23:09:52.195Z,42.03
2017-12-30T23:12:19.786Z,28.30
2017-12-30T23:14:47.366Z,36.83
2017-12-30T23:17:15.055Z,29.43
2017-12-30T23:19:42.665Z,36.27
2017-12-30T23:22:10.259Z,50.47
2017-12-30T23:24:38.608Z,37.37
2017-12-30T23:27:06.209Z,30.67
2017-12-30T23:29:34.601Z,36.33
2017-12-30T23:32:02.185Z,40.87
2017-12-30T23:34:29.767Z,31.57
2017-12-30T23:36:57.865Z,38.73
2017-12-30T23:39:26.242Z,35.80
2017-12-30T23:41:53.804Z,38.37
2017-12-30T23:44:22.424Z,48.57
2017-12-30T23:46:50.035Z,47.27
2017-12-30T23:49:18.605Z,41.80
2017-12-30T23:51:46.197Z,41.80
2017-12-30T23:54:13.768Z,38.27
2017-12-30T23:56:45.272Z,37.03
2017-12-30T23:59:12.873Z,38.03
